sensor_id;sensor_type;location;lat;lon;timestamp;P1;durP1;ratioP1;P2;durP2;ratioP2
55465;SDS011;41329;41.594;23.810;2023-03-14T00:01:10;5.97;;;5.43;;
55465;SDS011;41329;41.594;23.810;2023-03-14T00:03:40;6.23;;;5.63;;
55465;SDS011;41329;41.594;23.810;2023-03-14T00:06:06;5.47;;;5.07;;
55465;SDS011;41329;41.594;23.810;2023-03-14T00:08:32;9.50;;;5.77;;
55465;SDS011;41329;41.594;23.810;2023-03-14T00:10:58;6.23;;;5.73;;
55465;SDS011;41329;41.594;23.810;2023-03-14T00:15:53;4.80;;;4.40;;
55465;SDS011;41329;41.594;23.810;2023-03-14T00:18:19;6.70;;;5.17;;
55465;SDS011;41329;41.594;23.810;2023-03-14T00:20:44;5.40;;;5.00;;
55465;SDS011;41329;41.594;23.810;2023-03-14T00:23:10;4.90;;;4.50;;
55465;SDS011;41329;41.594;23.810;2023-03-14T00:25:35;5.47;;;4.80;;
55465;SDS011;41329;41.594;23.810;2023-03-14T00:28:01;4.27;;;3.97;;
55465;SDS011;41329;41.594;23.810;2023-03-14T00:30:26;5.30;;;4.87;;
55465;SDS011;41329;41.594;23.810;2023-03-14T00:32:52;4.43;;;4.13;;
55465;SDS011;41329;41.594;23.810;2023-03-14T00:35:18;4.80;;;4.27;;
55465;SDS011;41329;41.594;23.810;2023-03-14T00:37:43;5.87;;;4.20;;
55465;SDS011;41329;41.594;23.810;2023-03-14T00:40:09;6.10;;;5.70;;
55465;SDS011;41329;41.594;23.810;2023-03-14T00:42:35;7.77;;;7.07;;
55465;SDS011;41329;41.594;23.810;2023-03-14T00:45:00;6.77;;;6.17;;
55465;SDS011;41329;41.594;23.810;2023-03-14T00:47:26;14.43;;;13.00;;
55465;SDS011;41329;41.594;23.810;2023-03-14T00:49:51;15.13;;;12.60;;
55465;SDS011;41329;41.594;23.810;2023-03-14T00:52:17;18.30;;;13.57;;
55465;SDS011;41329;41.594;23.810;2023-03-14T00:54:42;15.53;;;11.90;;
55465;SDS011;41329;41.594;23.810;2023-03-14T00:57:07;15.00;;;10.80;;
55465;SDS011;41329;41.594;23.810;2023-03-14T00:59:33;13.30;;;11.07;;
55465;SDS011;41329;41.594;23.810;2023-03-14T01:01:58;13.30;;;11.23;;
55465;SDS011;41329;41.594;23.810;2023-03-14T01:04:24;9.90;;;8.87;;
55465;SDS011;41329;41.594;23.810;2023-03-14T01:06:49;9.57;;;8.73;;
55465;SDS011;41329;41.594;23.810;2023-03-14T01:09:18;9.93;;;8.93;;
55465;SDS011;41329;41.594;23.810;2023-03-14T01:11:43;8.90;;;8.20;;
55465;SDS011;41329;41.594;23.810;2023-03-14T01:14:11;9.17;;;7.93;;
55465;SDS011;41329;41.594;23.810;2023-03-14T01:16:37;9.77;;;6.93;;
55465;SDS011;41329;41.594;23.810;2023-03-14T01:19:02;9.27;;;8.17;;
55465;SDS011;41329;41.594;23.810;2023-03-14T01:21:29;9.03;;;8.33;;
55465;SDS011;41329;41.594;23.810;2023-03-14T01:23:59;8.98;;;7.82;;
55465;SDS011;41329;41.594;23.810;2023-03-14T01:26:27;8.33;;;7.53;;
55465;SDS011;41329;41.594;23.810;2023-03-14T01:28:55;7.10;;;6.43;;
55465;SDS011;41329;41.594;23.810;2023-03-14T01:31:22;8.50;;;7.60;;
55465;SDS011;41329;41.594;23.810;2023-03-14T01:33:49;7.03;;;6.33;;
55465;SDS011;41329;41.594;23.810;2023-03-14T01:36:14;7.33;;;6.73;;
55465;SDS011;41329;41.594;23.810;2023-03-14T01:38:40;7.37;;;6.77;;
55465;SDS011;41329;41.594;23.810;2023-03-14T01:41:06;7.63;;;6.93;;
55465;SDS011;41329;41.594;23.810;2023-03-14T01:43:33;8.03;;;6.37;;
55465;SDS011;41329;41.594;23.810;2023-03-14T01:51:01;12.40;;;5.47;;
55465;SDS011;41329;41.594;23.810;2023-03-14T01:53:29;7.60;;;5.60;;
55465;SDS011;41329;41.594;23.810;2023-03-14T01:55:55;6.23;;;5.73;;
55465;SDS011;41329;41.594;23.810;2023-03-14T01:58:24;5.60;;;5.13;;
55465;SDS011;41329;41.594;23.810;2023-03-14T02:00:53;13.10;;;6.10;;
55465;SDS011;41329;41.594;23.810;2023-03-14T02:03:20;6.77;;;6.23;;
55465;SDS011;41329;41.594;23.810;2023-03-14T02:05:48;6.63;;;5.93;;
55465;SDS011;41329;41.594;23.810;2023-03-14T02:08:16;5.40;;;4.90;;
55465;SDS011;41329;41.594;23.810;2023-03-14T02:10:45;5.53;;;5.03;;
55465;SDS011;41329;41.594;23.810;2023-03-14T02:13:13;5.73;;;5.17;;
55465;SDS011;41329;41.594;23.810;2023-03-14T02:15:40;6.13;;;5.50;;
55465;SDS011;41329;41.594;23.810;2023-03-14T02:18:06;6.70;;;6.13;;
55465;SDS011;41329;41.594;23.810;2023-03-14T02:20:35;6.87;;;5.70;;
55465;SDS011;41329;41.594;23.810;2023-03-14T02:23:12;6.90;;;6.40;;
55465;SDS011;41329;41.594;23.810;2023-03-14T02:25:49;7.43;;;6.83;;
55465;SDS011;41329;41.594;23.810;2023-03-14T02:28:22;6.97;;;6.20;;
55465;SDS011;41329;41.594;23.810;2023-03-14T02:30:48;7.00;;;6.50;;
55465;SDS011;41329;41.594;23.810;2023-03-14T02:33:15;6.97;;;6.37;;
55465;SDS011;41329;41.594;23.810;2023-03-14T02:35:59;6.93;;;6.43;;
55465;SDS011;41329;41.594;23.810;2023-03-14T02:38:28;7.87;;;7.27;;
55465;SDS011;41329;41.594;23.810;2023-03-14T02:40:58;7.83;;;7.17;;
55465;SDS011;41329;41.594;23.810;2023-03-14T02:43:23;6.57;;;5.97;;
55465;SDS011;41329;41.594;23.810;2023-03-14T02:45:50;7.03;;;6.43;;
55465;SDS011;41329;41.594;23.810;2023-03-14T02:48:39;6.13;;;5.63;;
55465;SDS011;41329;41.594;23.810;2023-03-14T02:51:08;5.00;;;4.70;;
55465;SDS011;41329;41.594;23.810;2023-03-14T02:53:34;5.00;;;4.50;;
55465;SDS011;41329;41.594;23.810;2023-03-14T02:56:02;5.40;;;4.93;;
55465;SDS011;41329;41.594;23.810;2023-03-14T02:58:28;5.67;;;5.23;;
55465;SDS011;41329;41.594;23.810;2023-03-14T03:00:54;5.80;;;5.33;;
55465;SDS011;41329;41.594;23.810;2023-03-14T03:03:19;5.43;;;5.03;;
55465;SDS011;41329;41.594;23.810;2023-03-14T03:05:49;5.93;;;5.43;;
55465;SDS011;41329;41.594;23.810;2023-03-14T03:08:16;7.47;;;6.80;;
55465;SDS011;41329;41.594;23.810;2023-03-14T03:10:42;5.60;;;5.07;;
55465;SDS011;41329;41.594;23.810;2023-03-14T03:13:07;6.67;;;6.07;;
55465;SDS011;41329;41.594;23.810;2023-03-14T03:15:33;6.57;;;6.07;;
55465;SDS011;41329;41.594;23.810;2023-03-14T03:17:58;7.90;;;7.27;;
55465;SDS011;41329;41.594;23.810;2023-03-14T03:20:23;8.53;;;7.73;;
55465;SDS011;41329;41.594;23.810;2023-03-14T03:22:49;8.97;;;8.00;;
55465;SDS011;41329;41.594;23.810;2023-03-14T03:25:15;8.07;;;7.37;;
55465;SDS011;41329;41.594;23.810;2023-03-14T03:27:41;9.90;;;9.10;;
55465;SDS011;41329;41.594;23.810;2023-03-14T03:30:06;11.73;;;9.20;;
55465;SDS011;41329;41.594;23.810;2023-03-14T03:32:33;9.07;;;7.40;;
55465;SDS011;41329;41.594;23.810;2023-03-14T03:34:58;8.40;;;7.70;;
55465;SDS011;41329;41.594;23.810;2023-03-14T03:37:24;9.57;;;8.67;;
55465;SDS011;41329;41.594;23.810;2023-03-14T03:39:50;12.13;;;11.03;;
55465;SDS011;41329;41.594;23.810;2023-03-14T03:42:16;12.23;;;10.17;;
55465;SDS011;41329;41.594;23.810;2023-03-14T03:44:42;9.37;;;8.50;;
55465;SDS011;41329;41.594;23.810;2023-03-14T03:47:08;16.10;;;13.23;;
55465;SDS011;41329;41.594;23.810;2023-03-14T03:49:34;14.33;;;12.73;;
55465;SDS011;41329;41.594;23.810;2023-03-14T03:51:59;9.00;;;8.17;;
55465;SDS011;41329;41.594;23.810;2023-03-14T03:54:25;8.27;;;7.43;;
55465;SDS011;41329;41.594;23.810;2023-03-14T03:56:51;9.23;;;8.43;;
55465;SDS011;41329;41.594;23.810;2023-03-14T03:59:17;9.50;;;8.80;;
55465;SDS011;41329;41.594;23.810;2023-03-14T04:01:43;10.10;;;9.40;;
55465;SDS011;41329;41.594;23.810;2023-03-14T04:04:09;9.57;;;8.67;;
55465;SDS011;41329;41.594;23.810;2023-03-14T04:06:34;9.60;;;8.90;;
55465;SDS011;41329;41.594;23.810;2023-03-14T04:09:00;9.27;;;8.13;;
55465;SDS011;41329;41.594;23.810;2023-03-14T04:11:25;11.47;;;10.33;;
55465;SDS011;41329;41.594;23.810;2023-03-14T04:13:51;10.07;;;9.30;;
55465;SDS011;41329;41.594;23.810;2023-03-14T04:16:18;13.93;;;11.17;;
55465;SDS011;41329;41.594;23.810;2023-03-14T04:18:47;16.38;;;13.63;;
55465;SDS011;41329;41.594;23.810;2023-03-14T04:21:13;15.00;;;13.57;;
55465;SDS011;41329;41.594;23.810;2023-03-14T04:23:38;21.57;;;14.60;;
55465;SDS011;41329;41.594;23.810;2023-03-14T04:26:04;13.30;;;12.20;;
55465;SDS011;41329;41.594;23.810;2023-03-14T04:28:30;14.20;;;11.27;;
55465;SDS011;41329;41.594;23.810;2023-03-14T04:30:55;15.67;;;11.63;;
55465;SDS011;41329;41.594;23.810;2023-03-14T04:33:21;13.93;;;12.37;;
55465;SDS011;41329;41.594;23.810;2023-03-14T04:35:47;13.03;;;11.60;;
55465;SDS011;41329;41.594;23.810;2023-03-14T04:38:15;14.00;;;12.73;;
55465;SDS011;41329;41.594;23.810;2023-03-14T04:40:41;15.93;;;14.40;;
55465;SDS011;41329;41.594;23.810;2023-03-14T04:43:10;21.90;;;15.20;;
55465;SDS011;41329;41.594;23.810;2023-03-14T04:45:36;21.57;;;14.47;;
55465;SDS011;41329;41.594;23.810;2023-03-14T04:48:02;21.77;;;13.90;;
55465;SDS011;41329;41.594;23.810;2023-03-14T04:50:28;16.03;;;14.50;;
55465;SDS011;41329;41.594;23.810;2023-03-14T04:52:53;13.47;;;12.27;;
55465;SDS011;41329;41.594;23.810;2023-03-14T04:55:19;21.00;;;14.30;;
55465;SDS011;41329;41.594;23.810;2023-03-14T04:57:44;15.07;;;13.53;;
55465;SDS011;41329;41.594;23.810;2023-03-14T05:00:10;13.83;;;11.57;;
55465;SDS011;41329;41.594;23.810;2023-03-14T05:02:36;13.90;;;12.67;;
55465;SDS011;41329;41.594;23.810;2023-03-14T05:05:01;11.70;;;10.73;;
55465;SDS011;41329;41.594;23.810;2023-03-14T05:07:27;12.57;;;11.23;;
55465;SDS011;41329;41.594;23.810;2023-03-14T05:09:52;10.50;;;9.53;;
55465;SDS011;41329;41.594;23.810;2023-03-14T05:12:18;11.57;;;10.70;;
55465;SDS011;41329;41.594;23.810;2023-03-14T05:14:45;10.60;;;9.70;;
55465;SDS011;41329;41.594;23.810;2023-03-14T05:17:10;12.30;;;11.27;;
55465;SDS011;41329;41.594;23.810;2023-03-14T05:19:38;13.70;;;12.27;;
55465;SDS011;41329;41.594;23.810;2023-03-14T05:22:03;13.97;;;12.73;;
55465;SDS011;41329;41.594;23.810;2023-03-14T05:24:29;13.43;;;12.23;;
55465;SDS011;41329;41.594;23.810;2023-03-14T05:26:54;15.83;;;14.37;;
55465;SDS011;41329;41.594;23.810;2023-03-14T05:29:19;23.07;;;19.13;;
55465;SDS011;41329;41.594;23.810;2023-03-14T05:31:45;37.70;;;25.60;;
55465;SDS011;41329;41.594;23.810;2023-03-14T05:34:10;23.13;;;20.37;;
55465;SDS011;41329;41.594;23.810;2023-03-14T05:36:36;22.03;;;19.70;;
55465;SDS011;41329;41.594;23.810;2023-03-14T05:39:01;26.70;;;21.27;;
55465;SDS011;41329;41.594;23.810;2023-03-14T05:41:27;24.10;;;20.20;;
55465;SDS011;41329;41.594;23.810;2023-03-14T05:43:52;23.27;;;19.40;;
55465;SDS011;41329;41.594;23.810;2023-03-14T05:46:18;24.37;;;19.50;;
55465;SDS011;41329;41.594;23.810;2023-03-14T05:48:43;25.37;;;22.03;;
55465;SDS011;41329;41.594;23.810;2023-03-14T05:51:08;36.33;;;24.77;;
55465;SDS011;41329;41.594;23.810;2023-03-14T05:53:34;61.13;;;31.97;;
55465;SDS011;41329;41.594;23.810;2023-03-14T05:55:59;39.70;;;24.63;;
55465;SDS011;41329;41.594;23.810;2023-03-14T05:58:25;50.40;;;27.07;;
55465;SDS011;41329;41.594;23.810;2023-03-14T06:00:50;31.77;;;24.37;;
55465;SDS011;41329;41.594;23.810;2023-03-14T06:03:16;56.77;;;32.43;;
55465;SDS011;41329;41.594;23.810;2023-03-14T06:05:41;28.53;;;22.50;;
55465;SDS011;41329;41.594;23.810;2023-03-14T06:08:07;37.40;;;24.57;;
55465;SDS011;41329;41.594;23.810;2023-03-14T06:10:32;30.20;;;23.07;;
55465;SDS011;41329;41.594;23.810;2023-03-14T06:13:00;37.37;;;25.87;;
55465;SDS011;41329;41.594;23.810;2023-03-14T06:15:25;47.37;;;30.30;;
55465;SDS011;41329;41.594;23.810;2023-03-14T06:17:51;30.03;;;22.80;;
55465;SDS011;41329;41.594;23.810;2023-03-14T06:20:20;29.37;;;20.37;;
55465;SDS011;41329;41.594;23.810;2023-03-14T06:22:45;16.53;;;15.13;;
55465;SDS011;41329;41.594;23.810;2023-03-14T06:25:11;13.87;;;12.50;;
55465;SDS011;41329;41.594;23.810;2023-03-14T06:27:36;19.80;;;16.33;;
55465;SDS011;41329;41.594;23.810;2023-03-14T06:30:02;66.70;;;29.10;;
55465;SDS011;41329;41.594;23.810;2023-03-14T06:32:28;56.60;;;29.93;;
55465;SDS011;41329;41.594;23.810;2023-03-14T06:34:53;53.00;;;27.03;;
55465;SDS011;41329;41.594;23.810;2023-03-14T06:37:19;67.87;;;30.13;;
55465;SDS011;41329;41.594;23.810;2023-03-14T06:39:44;18.80;;;14.97;;
55465;SDS011;41329;41.594;23.810;2023-03-14T06:42:10;22.60;;;15.77;;
55465;SDS011;41329;41.594;23.810;2023-03-14T06:44:35;22.73;;;15.90;;
55465;SDS011;41329;41.594;23.810;2023-03-14T06:47:01;34.63;;;20.87;;
55465;SDS011;41329;41.594;23.810;2023-03-14T06:49:26;19.00;;;14.70;;
55465;SDS011;41329;41.594;23.810;2023-03-14T06:51:51;25.50;;;16.67;;
55465;SDS011;41329;41.594;23.810;2023-03-14T06:54:17;28.00;;;19.83;;
55465;SDS011;41329;41.594;23.810;2023-03-14T06:56:42;32.97;;;20.27;;
55465;SDS011;41329;41.594;23.810;2023-03-14T06:59:08;25.13;;;18.17;;
55465;SDS011;41329;41.594;23.810;2023-03-14T07:01:33;30.33;;;19.23;;
55465;SDS011;41329;41.594;23.810;2023-03-14T07:04:00;29.40;;;19.07;;
55465;SDS011;41329;41.594;23.810;2023-03-14T07:06:25;34.10;;;21.80;;
55465;SDS011;41329;41.594;23.810;2023-03-14T07:08:51;44.57;;;24.80;;
55465;SDS011;41329;41.594;23.810;2023-03-14T07:11:17;34.30;;;20.53;;
55465;SDS011;41329;41.594;23.810;2023-03-14T07:13:42;31.57;;;19.63;;
55465;SDS011;41329;41.594;23.810;2023-03-14T07:16:08;18.33;;;16.40;;
55465;SDS011;41329;41.594;23.810;2023-03-14T07:18:34;23.07;;;16.83;;
55465;SDS011;41329;41.594;23.810;2023-03-14T07:20:59;48.87;;;27.57;;
55465;SDS011;41329;41.594;23.810;2023-03-14T07:23:25;35.20;;;20.60;;
55465;SDS011;41329;41.594;23.810;2023-03-14T07:25:50;12.23;;;11.17;;
55465;SDS011;41329;41.594;23.810;2023-03-14T07:28:16;17.53;;;11.77;;
55465;SDS011;41329;41.594;23.810;2023-03-14T07:30:42;17.87;;;14.20;;
55465;SDS011;41329;41.594;23.810;2023-03-14T07:33:08;18.67;;;17.10;;
55465;SDS011;41329;41.594;23.810;2023-03-14T07:35:33;15.90;;;14.70;;
55465;SDS011;41329;41.594;23.810;2023-03-14T07:37:58;46.77;;;28.30;;
55465;SDS011;41329;41.594;23.810;2023-03-14T07:40:24;12.73;;;11.53;;
55465;SDS011;41329;41.594;23.810;2023-03-14T07:42:49;11.43;;;10.63;;
55465;SDS011;41329;41.594;23.810;2023-03-14T07:45:15;12.43;;;11.23;;
55465;SDS011;41329;41.594;23.810;2023-03-14T07:47:40;12.83;;;11.90;;
55465;SDS011;41329;41.594;23.810;2023-03-14T07:50:06;14.97;;;12.57;;
55465;SDS011;41329;41.594;23.810;2023-03-14T07:52:33;12.83;;;11.47;;
55465;SDS011;41329;41.594;23.810;2023-03-14T07:54:58;11.97;;;10.80;;
55465;SDS011;41329;41.594;23.810;2023-03-14T07:57:24;12.93;;;11.60;;
55465;SDS011;41329;41.594;23.810;2023-03-14T07:59:49;22.53;;;19.10;;
55465;SDS011;41329;41.594;23.810;2023-03-14T08:02:15;11.23;;;10.30;;
55465;SDS011;41329;41.594;23.810;2023-03-14T08:04:41;12.57;;;11.43;;
55465;SDS011;41329;41.594;23.810;2023-03-14T08:07:06;9.50;;;8.63;;
55465;SDS011;41329;41.594;23.810;2023-03-14T08:09:32;8.90;;;8.20;;
55465;SDS011;41329;41.594;23.810;2023-03-14T08:11:57;6.97;;;6.37;;
55465;SDS011;41329;41.594;23.810;2023-03-14T08:14:23;13.90;;;12.63;;
55465;SDS011;41329;41.594;23.810;2023-03-14T08:16:51;6.40;;;5.90;;
55465;SDS011;41329;41.594;23.810;2023-03-14T08:19:17;5.07;;;4.67;;
55465;SDS011;41329;41.594;23.810;2023-03-14T08:21:42;10.03;;;9.10;;
55465;SDS011;41329;41.594;23.810;2023-03-14T08:24:08;20.67;;;18.33;;
55465;SDS011;41329;41.594;23.810;2023-03-14T08:26:33;7.70;;;5.43;;
55465;SDS011;41329;41.594;23.810;2023-03-14T08:28:59;6.13;;;5.73;;
55465;SDS011;41329;41.594;23.810;2023-03-14T08:31:24;6.07;;;5.67;;
55465;SDS011;41329;41.594;23.810;2023-03-14T08:33:50;4.53;;;4.23;;
55465;SDS011;41329;41.594;23.810;2023-03-14T08:36:17;7.77;;;7.17;;
55465;SDS011;41329;41.594;23.810;2023-03-14T08:38:42;5.97;;;5.57;;
55465;SDS011;41329;41.594;23.810;2023-03-14T08:41:08;3.73;;;3.53;;
55465;SDS011;41329;41.594;23.810;2023-03-14T08:43:34;4.90;;;4.50;;
55465;SDS011;41329;41.594;23.810;2023-03-14T08:46:00;4.13;;;3.73;;
55465;SDS011;41329;41.594;23.810;2023-03-14T08:48:27;4.60;;;4.00;;
55465;SDS011;41329;41.594;23.810;2023-03-14T08:50:54;3.70;;;3.40;;
55465;SDS011;41329;41.594;23.810;2023-03-14T08:53:20;4.13;;;3.83;;
55465;SDS011;41329;41.594;23.810;2023-03-14T08:55:47;3.40;;;3.10;;
55465;SDS011;41329;41.594;23.810;2023-03-14T08:58:16;4.45;;;3.72;;
55465;SDS011;41329;41.594;23.810;2023-03-14T09:00:42;6.23;;;3.23;;
55465;SDS011;41329;41.594;23.810;2023-03-14T09:03:07;2.87;;;2.67;;
55465;SDS011;41329;41.594;23.810;2023-03-14T09:05:33;2.87;;;2.67;;
55465;SDS011;41329;41.594;23.810;2023-03-14T09:07:59;2.80;;;2.60;;
55465;SDS011;41329;41.594;23.810;2023-03-14T09:10:25;4.73;;;3.17;;
55465;SDS011;41329;41.594;23.810;2023-03-14T09:12:50;2.93;;;2.73;;
55465;SDS011;41329;41.594;23.810;2023-03-14T09:15:16;3.97;;;3.30;;
55465;SDS011;41329;41.594;23.810;2023-03-14T09:17:42;4.83;;;3.73;;
55465;SDS011;41329;41.594;23.810;2023-03-14T09:20:09;4.07;;;3.77;;
55465;SDS011;41329;41.594;23.810;2023-03-14T09:22:35;5.53;;;5.13;;
55465;SDS011;41329;41.594;23.810;2023-03-14T09:25:03;7.23;;;6.80;;
55465;SDS011;41329;41.594;23.810;2023-03-14T09:27:29;4.87;;;4.50;;
55465;SDS011;41329;41.594;23.810;2023-03-14T09:29:54;5.90;;;4.20;;
55465;SDS011;41329;41.594;23.810;2023-03-14T09:32:20;4.37;;;4.07;;
55465;SDS011;41329;41.594;23.810;2023-03-14T09:34:45;4.17;;;3.80;;
55465;SDS011;41329;41.594;23.810;2023-03-14T09:37:11;4.20;;;3.80;;
55465;SDS011;41329;41.594;23.810;2023-03-14T09:39:36;2.87;;;2.67;;
55465;SDS011;41329;41.594;23.810;2023-03-14T09:42:03;3.00;;;2.80;;
55465;SDS011;41329;41.594;23.810;2023-03-14T09:44:42;2.53;;;2.40;;
55465;SDS011;41329;41.594;23.810;2023-03-14T09:47:22;3.40;;;3.20;;
55465;SDS011;41329;41.594;23.810;2023-03-14T09:49:49;3.90;;;3.60;;
55465;SDS011;41329;41.594;23.810;2023-03-14T09:52:15;4.27;;;3.87;;
55465;SDS011;41329;41.594;23.810;2023-03-14T09:55:02;5.53;;;5.13;;
55465;SDS011;41329;41.594;23.810;2023-03-14T09:57:29;5.83;;;5.40;;
55465;SDS011;41329;41.594;23.810;2023-03-14T09:59:58;5.20;;;4.70;;
55465;SDS011;41329;41.594;23.810;2023-03-14T10:02:37;5.15;;;4.65;;
55465;SDS011;41329;41.594;23.810;2023-03-14T10:05:07;10.40;;;4.23;;
55465;SDS011;41329;41.594;23.810;2023-03-14T10:07:39;4.73;;;4.33;;
55465;SDS011;41329;41.594;23.810;2023-03-14T10:10:09;8.30;;;5.43;;
55465;SDS011;41329;41.594;23.810;2023-03-14T10:12:37;6.30;;;5.80;;
55465;SDS011;41329;41.594;23.810;2023-03-14T10:15:08;5.50;;;5.10;;
55465;SDS011;41329;41.594;23.810;2023-03-14T10:17:40;4.93;;;4.53;;
55465;SDS011;41329;41.594;23.810;2023-03-14T10:25:46;3.87;;;3.57;;
55465;SDS011;41329;41.594;23.810;2023-03-14T10:28:27;5.87;;;3.97;;
55465;SDS011;41329;41.594;23.810;2023-03-14T10:30:55;3.63;;;3.33;;
55465;SDS011;41329;41.594;23.810;2023-03-14T10:33:25;4.00;;;3.60;;
55465;SDS011;41329;41.594;23.810;2023-03-14T10:36:02;3.10;;;2.90;;
55465;SDS011;41329;41.594;23.810;2023-03-14T10:38:35;3.63;;;3.33;;
55465;SDS011;41329;41.594;23.810;2023-03-14T10:41:01;3.63;;;2.85;;
55465;SDS011;41329;41.594;23.810;2023-03-14T10:43:39;5.93;;;3.15;;
55465;SDS011;41329;41.594;23.810;2023-03-14T10:46:08;3.47;;;3.13;;
55465;SDS011;41329;41.594;23.810;2023-03-14T10:48:40;4.13;;;2.60;;
55465;SDS011;41329;41.594;23.810;2023-03-14T10:56:01;3.78;;;2.85;;
55465;SDS011;41329;41.594;23.810;2023-03-14T10:58:28;3.22;;;2.60;;
55465;SDS011;41329;41.594;23.810;2023-03-14T11:07:02;2.60;;;2.40;;
55465;SDS011;41329;41.594;23.810;2023-03-14T11:09:43;2.78;;;2.53;;
55465;SDS011;41329;41.594;23.810;2023-03-14T11:14:56;1.70;;;1.60;;
55465;SDS011;41329;41.594;23.810;2023-03-14T11:20:22;2.40;;;1.60;;
55465;SDS011;41329;41.594;23.810;2023-03-14T11:23:17;2.83;;;2.03;;
55465;SDS011;41329;41.594;23.810;2023-03-14T11:36:39;2.25;;;2.05;;
55465;SDS011;41329;41.594;23.810;2023-03-14T11:39:16;2.10;;;1.95;;
55465;SDS011;41329;41.594;23.810;2023-03-14T11:41:46;2.28;;;2.08;;
55465;SDS011;41329;41.594;23.810;2023-03-14T11:44:18;2.53;;;2.00;;
55465;SDS011;41329;41.594;23.810;2023-03-14T11:46:50;3.28;;;1.77;;
55465;SDS011;41329;41.594;23.810;2023-03-14T11:51:56;1.60;;;1.50;;
55465;SDS011;41329;41.594;23.810;2023-03-14T11:56:53;3.80;;;3.50;;
55465;SDS011;41329;41.594;23.810;2023-03-14T12:02:00;4.05;;;3.33;;
55465;SDS011;41329;41.594;23.810;2023-03-14T12:07:08;2.05;;;1.85;;
55465;SDS011;41329;41.594;23.810;2023-03-14T12:09:42;1.70;;;1.60;;
55465;SDS011;41329;41.594;23.810;2023-03-14T12:12:10;1.70;;;1.60;;
55465;SDS011;41329;41.594;23.810;2023-03-14T12:14:51;3.05;;;1.50;;
55465;SDS011;41329;41.594;23.810;2023-03-14T12:28:14;3.45;;;2.30;;
55465;SDS011;41329;41.594;23.810;2023-03-14T12:30:36;1.88;;;1.60;;
55465;SDS011;41329;41.594;23.810;2023-03-14T12:38:10;1.50;;;1.08;;
55465;SDS011;41329;41.594;23.810;2023-03-14T12:40:54;1.42;;;1.08;;
55465;SDS011;41329;41.594;23.810;2023-03-14T12:43:28;1.38;;;1.27;;
55465;SDS011;41329;41.594;23.810;2023-03-14T12:48:43;1.42;;;1.33;;
55465;SDS011;41329;41.594;23.810;2023-03-14T12:51:19;3.17;;;2.40;;
55465;SDS011;41329;41.594;23.810;2023-03-14T13:02:09;2.00;;;1.80;;
55465;SDS011;41329;41.594;23.810;2023-03-14T13:04:51;2.22;;;1.65;;
55465;SDS011;41329;41.594;23.810;2023-03-14T13:10:25;2.47;;;1.98;;
55465;SDS011;41329;41.594;23.810;2023-03-14T13:12:57;1.45;;;1.35;;
55465;SDS011;41329;41.594;23.810;2023-03-14T13:15:31;3.15;;;1.40;;
55465;SDS011;41329;41.594;23.810;2023-03-14T13:18:09;2.45;;;1.55;;
55465;SDS011;41329;41.594;23.810;2023-03-14T13:24:03;2.33;;;1.75;;
55465;SDS011;41329;41.594;23.810;2023-03-14T13:26:34;2.65;;;1.70;;
55465;SDS011;41329;41.594;23.810;2023-03-14T13:29:35;2.20;;;2.10;;
55465;SDS011;41329;41.594;23.810;2023-03-14T13:31:58;2.45;;;1.80;;
55465;SDS011;41329;41.594;23.810;2023-03-14T13:34:26;2.55;;;1.58;;
55465;SDS011;41329;41.594;23.810;2023-03-14T13:36:54;1.95;;;1.52;;
55465;SDS011;41329;41.594;23.810;2023-03-14T13:39:21;1.40;;;1.30;;
55465;SDS011;41329;41.594;23.810;2023-03-14T13:41:50;1.77;;;1.33;;
55465;SDS011;41329;41.594;23.810;2023-03-14T13:46:59;1.52;;;1.38;;
55465;SDS011;41329;41.594;23.810;2023-03-14T13:49:26;2.05;;;1.80;;
55465;SDS011;41329;41.594;23.810;2023-03-14T13:51:54;2.00;;;1.73;;
55465;SDS011;41329;41.594;23.810;2023-03-14T13:54:21;3.33;;;1.45;;
55465;SDS011;41329;41.594;23.810;2023-03-14T13:56:47;3.13;;;1.65;;
55465;SDS011;41329;41.594;23.810;2023-03-14T13:59:23;3.17;;;2.30;;
55465;SDS011;41329;41.594;23.810;2023-03-14T14:01:48;2.70;;;1.92;;
55465;SDS011;41329;41.594;23.810;2023-03-14T14:04:16;2.50;;;1.80;;
55465;SDS011;41329;41.594;23.810;2023-03-14T14:06:45;2.15;;;1.95;;
55465;SDS011;41329;41.594;23.810;2023-03-14T14:12:03;7.50;;;1.93;;
55465;SDS011;41329;41.594;23.810;2023-03-14T14:14:40;4.07;;;1.63;;
55465;SDS011;41329;41.594;23.810;2023-03-14T14:17:13;1.95;;;1.60;;
55465;SDS011;41329;41.594;23.810;2023-03-14T14:19:43;5.28;;;1.67;;
55465;SDS011;41329;41.594;23.810;2023-03-14T14:22:09;2.85;;;1.95;;
55465;SDS011;41329;41.594;23.810;2023-03-14T14:24:35;3.15;;;1.92;;
55465;SDS011;41329;41.594;23.810;2023-03-14T14:29:34;3.50;;;1.85;;
55465;SDS011;41329;41.594;23.810;2023-03-14T14:32:01;3.67;;;1.85;;
55465;SDS011;41329;41.594;23.810;2023-03-14T14:34:44;5.25;;;1.58;;
55465;SDS011;41329;41.594;23.810;2023-03-14T14:37:21;3.22;;;2.38;;
55465;SDS011;41329;41.594;23.810;2023-03-14T14:39:49;3.80;;;2.13;;
55465;SDS011;41329;41.594;23.810;2023-03-14T14:42:18;8.55;;;1.92;;
55465;SDS011;41329;41.594;23.810;2023-03-14T14:44:47;4.78;;;3.00;;
55465;SDS011;41329;41.594;23.810;2023-03-14T14:47:16;2.75;;;2.05;;
55465;SDS011;41329;41.594;23.810;2023-03-14T14:49:46;6.93;;;2.33;;
55465;SDS011;41329;41.594;23.810;2023-03-14T14:52:20;4.10;;;2.50;;
55465;SDS011;41329;41.594;23.810;2023-03-14T14:54:58;2.15;;;1.95;;
55465;SDS011;41329;41.594;23.810;2023-03-14T14:57:28;2.75;;;1.88;;
55465;SDS011;41329;41.594;23.810;2023-03-14T15:00:02;3.58;;;2.22;;
55465;SDS011;41329;41.594;23.810;2023-03-14T15:05:16;3.75;;;2.95;;
55465;SDS011;41329;41.594;23.810;2023-03-14T15:07:44;3.97;;;2.67;;
55465;SDS011;41329;41.594;23.810;2023-03-14T15:10:10;5.85;;;3.70;;
55465;SDS011;41329;41.594;23.810;2023-03-14T15:12:43;3.75;;;3.28;;
55465;SDS011;41329;41.594;23.810;2023-03-14T15:15:11;6.15;;;4.63;;
55465;SDS011;41329;41.594;23.810;2023-03-14T15:17:37;4.85;;;4.45;;
55465;SDS011;41329;41.594;23.810;2023-03-14T15:20:04;4.20;;;3.90;;
55465;SDS011;41329;41.594;23.810;2023-03-14T15:22:31;4.13;;;3.67;;
55465;SDS011;41329;41.594;23.810;2023-03-14T15:24:57;4.65;;;4.25;;
55465;SDS011;41329;41.594;23.810;2023-03-14T15:27:22;4.53;;;4.13;;
55465;SDS011;41329;41.594;23.810;2023-03-14T15:29:48;4.47;;;3.53;;
55465;SDS011;41329;41.594;23.810;2023-03-14T15:32:14;8.55;;;7.03;;
55465;SDS011;41329;41.594;23.810;2023-03-14T15:34:41;7.45;;;6.35;;
55465;SDS011;41329;41.594;23.810;2023-03-14T15:37:11;5.93;;;5.40;;
55465;SDS011;41329;41.594;23.810;2023-03-14T15:42:04;5.05;;;4.65;;
55465;SDS011;41329;41.594;23.810;2023-03-14T15:44:29;4.93;;;4.43;;
55465;SDS011;41329;41.594;23.810;2023-03-14T15:46:55;5.50;;;5.10;;
55465;SDS011;41329;41.594;23.810;2023-03-14T15:49:20;8.93;;;8.15;;
55465;SDS011;41329;41.594;23.810;2023-03-14T15:51:46;5.65;;;4.95;;
55465;SDS011;41329;41.594;23.810;2023-03-14T15:54:11;9.45;;;6.70;;
55465;SDS011;41329;41.594;23.810;2023-03-14T15:56:36;8.52;;;7.93;;
55465;SDS011;41329;41.594;23.810;2023-03-14T15:59:02;10.70;;;10.10;;
55465;SDS011;41329;41.594;23.810;2023-03-14T16:01:27;11.15;;;10.35;;
55465;SDS011;41329;41.594;23.810;2023-03-14T16:03:53;6.35;;;5.75;;
55465;SDS011;41329;41.594;23.810;2023-03-14T16:06:19;5.97;;;5.47;;